Time;durP1;ratioP1;P1;durP2;ratioP2;P2;SDS_P1;SDS_P2;PMS_P1;PMS_P2;Temp;Humidity;BMP_temperature;BMP_pressure;BME280_temperature;BME280_humidity;BME280_pressure;Samples;Min_cycle;Max_cycle;Signal;HPM_P1;HPM_P2
2024/03/23 00:01:19;;;;;;;17.30;9.50;;;;;;;8.60;69.28;98596.42;106842;1253;110022;-82
2024/03/23 00:03:46;;;;;;;19.40;9.90;;;;;;;8.59;69.26;98596.34;106646;1253;97990;-81
2024/03/23 00:06:12;;;;;;;17.00;9.80;;;;;;;8.57;69.20;98595.23;106551;1254;97917;-81
2024/03/23 00:08:39;;;;;;;18.00;10.40;;;;;;;8.57;69.07;98590.63;106738;1258;97939;-80
2024/03/23 00:11:06;;;;;;;17.10;10.20;;;;;;;8.56;69.12;98585.38;106879;1252;97955;-81
2024/03/23 00:13:32;;;;;;;19.70;10.80;;;;;;;8.57;69.11;98583.04;106839;1256;97751;-81
2024/03/23 00:15:59;;;;;;;18.40;10.00;;;;;;;8.57;69.14;98581.09;106760;1258;98309;-80
2024/03/23 00:18:25;;;;;;;17.30;9.70;;;;;;;8.58;69.15;98575.38;106794;1257;98032;-79
2024/03/23 00:20:54;;;;;;;17.50;10.00;;;;;;;8.57;69.02;98571.52;106897;1257;97935;-80
2024/03/23 00:23:23;;;;;;;15.20;8.90;;;;;;;8.57;69.03;98562.71;106728;1257;98032;-77
2024/03/23 00:25:50;;;;;;;16.60;9.40;;;;;;;8.57;68.86;98557.26;106794;1253;97860;-81
2024/03/23 00:28:16;;;;;;;16.80;9.60;;;;;;;8.57;69.00;98553.73;106807;1258;97967;-81
2024/03/23 00:30:43;;;;;;;19.40;9.90;;;;;;;8.57;68.95;98553.70;106780;1259;97862;-80
2024/03/23 00:33:09;;;;;;;16.70;10.20;;;;;;;8.58;68.96;98550.99;106554;1255;97851;-80
2024/03/23 00:35:36;;;;;;;18.00;9.90;;;;;;;8.57;68.89;98548.55;106912;1253;98040;-81
2024/03/23 00:38:02;;;;;;;15.50;9.80;;;;;;;8.58;69.01;98548.86;106796;1255;107653;-77
2024/03/23 00:40:28;;;;;;;18.50;9.80;;;;;;;8.57;68.91;98544.13;106814;1257;98018;-80
2024/03/23 00:42:55;;;;;;;16.90;9.00;;;;;;;8.58;69.01;98543.20;107077;1257;97962;-80
2024/03/23 00:45:21;;;;;;;;;;;;;;;8.58;68.93;98540.88;106696;1258;97972;-79
2024/03/23 00:47:48;;;;;;;19.10;10.30;;;;;;;8.57;68.88;98539.01;106585;1258;106334;-81
2024/03/23 00:50:14;;;;;;;16.20;9.60;;;;;;;8.58;68.94;98538.58;106874;1257;97852;-79
2024/03/23 00:52:41;;;;;;;18.60;10.80;;;;;;;8.58;68.89;98535.23;106865;1253;97965;-81
2024/03/23 00:55:07;;;;;;;16.20;9.90;;;;;;;8.58;68.73;98537.16;106920;1257;98473;-82
2024/03/23 00:57:34;;;;;;;15.40;8.80;;;;;;;8.59;68.73;98533.92;106727;1253;107647;-81
2024/03/23 01:00:00;;;;;;;18.90;11.20;;;;;;;8.60;68.96;98527.52;106729;1266;111986;-79
2024/03/23 01:02:27;;;;;;;17.00;9.20;;;;;;;8.60;68.76;98526.08;106801;1253;97969;-81
2024/03/23 01:04:54;;;;;;;17.90;9.30;;;;;;;8.61;68.72;98526.54;106927;1253;97950;-82
2024/03/23 01:07:20;;;;;;;19.20;9.80;;;;;;;8.62;68.87;98524.02;108765;1252;96497;-76
2024/03/23 01:09:47;;;;;;;17.90;9.20;;;;;;;8.63;68.79;98520.41;107539;1257;97858;-81
2024/03/23 01:12:14;;;;;;;15.30;9.60;;;;;;;8.63;68.82;98518.96;106834;1257;98011;-81
2024/03/23 01:14:40;;;;;;;14.80;9.30;;;;;;;8.65;68.76;98517.44;106754;1257;97958;-80
2024/03/23 01:17:07;;;;;;;16.60;9.30;;;;;;;8.66;68.82;98504.81;106325;1257;98883;-76
2024/03/23 01:19:33;;;;;;;;;;;;;;;8.66;68.75;98500.91;106701;1257;97932;-81
2024/03/23 01:22:00;;;;;;;17.20;9.50;;;;;;;8.64;68.74;98499.44;106939;1257;97914;-81
2024/03/23 01:24:26;;;;;;;16.40;9.30;;;;;;;8.65;68.74;98494.60;106666;1257;97904;-79
2024/03/23 01:26:52;;;;;;;;;;;;;;;8.66;68.69;98498.30;106715;1253;99285;-79
2024/03/23 01:29:19;;;;;;;18.50;10.30;;;;;;;8.64;68.62;98489.89;106791;1257;98066;-82
2024/03/23 01:31:45;;;;;;;16.50;10.10;;;;;;;8.65;68.68;98485.99;106826;1257;97900;-82
2024/03/23 01:34:12;;;;;;;20.40;11.10;;;;;;;8.65;68.62;98484.70;106825;1253;97894;-82
2024/03/23 01:36:38;;;;;;;19.30;10.10;;;;;;;8.66;68.55;98484.33;106647;1253;97942;-81
2024/03/23 01:39:05;;;;;;;19.90;10.60;;;;;;;8.66;68.56;98483.98;107000;1256;98038;-82
2024/03/23 01:41:31;;;;;;;16.90;10.30;;;;;;;8.65;68.61;98480.30;106747;1256;98852;-80
2024/03/23 01:44:04;;;;;;;19.00;10.60;;;;;;;8.66;68.57;98483.27;106842;1252;109860;-82
2024/03/23 01:46:31;;;;;;;18.80;10.40;;;;;;;8.66;68.46;98475.84;106974;1253;97949;-81
2024/03/23 01:48:57;;;;;;;17.60;10.90;;;;;;;8.67;68.69;98473.12;106561;1253;98392;-79
2024/03/23 01:51:24;;;;;;;17.60;10.70;;;;;;;8.68;68.60;98468.12;106821;1259;97935;-80
2024/03/23 01:53:53;;;;;;;20.80;11.50;;;;;;;8.66;68.51;98463.23;106940;1253;97980;-82
2024/03/23 01:56:21;;;;;;;20.60;11.20;;;;;;;8.66;68.50;98462.03;106702;1256;97996;-82
2024/03/23 01:58:47;;;;;;;19.50;10.10;;;;;;;8.65;68.51;98462.45;106846;1253;98666;-82
2024/03/23 02:01:17;;;;;;;17.60;10.50;;;;;;;8.66;68.39;98458.70;106728;1253;97985;-83
2024/03/23 02:03:43;;;;;;;18.30;10.50;;;;;;;8.67;68.51;98458.64;106799;1257;97964;-81
2024/03/23 02:06:10;;;;;;;20.60;10.00;;;;;;;8.67;68.43;98457.34;106882;1257;97959;-82
2024/03/23 02:08:37;;;;;;;17.70;10.10;;;;;;;8.67;68.62;98452.23;106754;1257;97863;-83
2024/03/23 02:11:03;;;;;;;19.20;9.80;;;;;;;8.67;68.48;98446.98;106737;1256;97901;-81
2024/03/23 02:13:31;;;;;;;16.90;9.60;;;;;;;8.66;68.44;98446.84;106880;1257;97930;-83
2024/03/23 02:15:58;;;;;;;19.00;11.20;;;;;;;8.67;68.39;98445.70;106900;1257;98877;-82
2024/03/23 02:18:25;;;;;;;19.40;10.80;;;;;;;8.68;68.38;98443.52;106837;1259;99285;-83
2024/03/23 02:20:51;;;;;;;17.10;10.20;;;;;;;8.68;68.41;98437.32;106820;1257;97958;-83
2024/03/23 02:23:17;;;;;;;;;;;;;;;8.69;68.45;98432.86;106783;1258;97962;-81
2024/03/23 02:25:44;;;;;;;17.90;10.30;;;;;;;8.68;68.45;98429.36;106616;1257;98896;-82
2024/03/23 02:28:11;;;;;;;17.30;10.00;;;;;;;8.68;68.34;98423.20;106912;1253;110443;-83
2024/03/23 02:30:38;;;;;;;14.00;8.50;;;;;;;8.68;68.37;98422.15;106838;1257;97985;-82
2024/03/23 02:33:04;;;;;;;15.60;9.10;;;;;;;8.68;68.34;98422.52;106789;1253;98043;-82
2024/03/23 02:35:31;;;;;;;18.40;10.70;;;;;;;8.68;68.39;98415.42;106673;1257;99517;-83
2024/03/23 02:37:57;;;;;;;14.40;9.40;;;;;;;8.67;68.38;98416.35;106949;1257;98674;-82
2024/03/23 02:40:25;;;;;;;15.60;9.40;;;;;;;8.67;68.29;98419.89;106811;1253;97862;-82
2024/03/23 02:42:52;;;;;;;18.20;11.20;;;;;;;8.67;68.39;98415.64;107031;1253;97865;-83
2024/03/23 02:45:19;;;;;;;18.40;9.90;;;;;;;8.67;68.40;98419.77;106883;1253;97879;-83
2024/03/23 02:47:45;;;;;;;17.80;10.80;;;;;;;8.65;68.27;98414.02;106796;1253;97959;-82
2024/03/23 02:50:12;;;;;;;14.30;8.80;;;;;;;8.66;68.38;98411.52;106895;1253;98025;-81
2024/03/23 02:52:38;;;;;;;16.60;9.30;;;;;;;8.68;68.27;98418.61;106693;1257;98014;-81
2024/03/23 02:55:05;;;;;;;;;;;;;;;8.69;68.30;98417.27;106681;1253;97694;-81
2024/03/23 02:57:31;;;;;;;17.90;9.80;;;;;;;8.68;68.35;98408.98;106922;1253;97913;-82
2024/03/23 02:59:57;;;;;;;;;;;;;;;8.70;68.26;98406.28;106851;1253;97942;-80
2024/03/23 03:02:24;;;;;;;19.20;10.00;;;;;;;8.68;68.41;98402.15;106925;1253;98791;-81
2024/03/23 03:04:50;;;;;;;17.60;9.00;;;;;;;8.68;68.21;98398.80;106783;1257;98373;-81
2024/03/23 03:07:17;;;;;;;18.20;10.20;;;;;;;8.68;68.27;98395.11;106783;1257;97887;-82
2024/03/23 03:09:43;;;;;;;18.60;10.40;;;;;;;8.68;68.28;98395.41;106984;1257;97971;-79
2024/03/23 03:12:10;;;;;;;17.80;9.60;;;;;;;8.69;68.21;98394.48;106814;1257;97946;-80
2024/03/23 03:14:36;;;;;;;18.20;9.90;;;;;;;8.69;68.11;98388.12;106767;1259;99036;-82
2024/03/23 03:17:03;;;;;;;16.40;10.10;;;;;;;8.70;68.13;98391.44;106802;1256;97962;-80
2024/03/23 03:19:30;;;;;;;15.80;8.00;;;;;;;8.70;68.36;98389.79;106707;1258;97852;-82
2024/03/23 03:21:57;;;;;;;20.50;11.70;;;;;;;8.69;68.12;98384.36;106730;1257;98067;-81
2024/03/23 03:24:23;;;;;;;;;;;;;;;8.69;68.17;98385.80;106957;1252;97964;-82
2024/03/23 03:26:49;;;;;;;16.30;9.20;;;;;;;8.68;68.18;98384.84;106606;1257;97945;-82
2024/03/23 03:29:16;;;;;;;18.40;10.40;;;;;;;8.69;68.07;98382.62;106877;1256;98783;-81
2024/03/23 03:31:43;;;;;;;18.00;10.60;;;;;;;8.70;68.09;98382.23;106626;1257;98209;-81
2024/03/23 03:34:10;;;;;;;20.20;10.70;;;;;;;8.70;68.17;98381.30;106828;1258;98462;-80
2024/03/23 03:36:36;;;;;;;21.10;10.80;;;;;;;8.71;68.13;98376.85;106819;1253;97992;-81
2024/03/23 03:39:04;;;;;;;16.70;9.60;;;;;;;8.72;68.08;98373.07;106862;1259;98051;-78
2024/03/23 03:41:32;;;;;;;15.80;9.40;;;;;;;8.71;68.05;98375.19;106563;1258;97927;-78
2024/03/23 03:44:02;;;;;;;18.20;10.10;;;;;;;8.72;68.10;98375.51;106913;1256;106164;-80
2024/03/23 03:46:28;;;;;;;17.30;9.10;;;;;;;8.72;68.10;98376.71;106580;1256;98538;-80
2024/03/23 03:48:55;;;;;;;18.50;10.10;;;;;;;8.73;67.95;98373.16;106876;1258;97922;-81
2024/03/23 03:51:21;;;;;;;17.10;9.60;;;;;;;8.74;68.02;98375.02;106708;1259;97984;-80
2024/03/23 03:53:48;;;;;;;19.40;10.40;;;;;;;8.75;67.98;98373.17;106838;1253;97898;-81
2024/03/23 03:56:14;;;;;;;16.20;9.40;;;;;;;8.75;67.94;98374.91;106845;1253;98064;-80
2024/03/23 03:58:41;;;;;;;16.20;9.50;;;;;;;8.75;68.00;98368.58;106734;1269;97942;-81
2024/03/23 04:01:07;;;;;;;15.90;9.20;;;;;;;8.76;67.78;98368.00;106909;1257;98787;-81
2024/03/23 04:03:34;;;;;;;16.70;9.80;;;;;;;8.76;67.98;98369.66;106865;1256;97966;-81
2024/03/23 04:06:01;;;;;;;17.20;10.50;;;;;;;8.76;68.00;98369.17;106694;1258;97996;-80
2024/03/23 04:08:27;;;;;;;16.70;9.60;;;;;;;8.76;67.95;98367.92;106850;1259;97959;-82
2024/03/23 04:10:54;;;;;;;20.60;10.80;;;;;;;8.76;67.94;98369.23;106805;1253;97961;-81
2024/03/23 04:13:20;;;;;;;21.90;10.00;;;;;;;8.75;67.86;98369.42;106990;1257;98217;-81
2024/03/23 04:15:47;;;;;;;18.10;10.20;;;;;;;8.74;67.77;98361.00;107052;1258;99285;-81
2024/03/23 04:18:14;;;;;;;16.80;10.00;;;;;;;8.75;67.91;98366.10;106989;1257;98055;-81
2024/03/23 04:20:40;;;;;;;16.10;9.70;;;;;;;8.75;67.84;98366.11;106724;1258;97914;-80
2024/03/23 04:23:07;;;;;;;17.30;9.50;;;;;;;8.75;67.84;98365.20;106929;1253;99195;-81
2024/03/23 04:25:33;;;;;;;18.00;9.50;;;;;;;8.76;67.81;98366.73;106857;1258;97949;-82
2024/03/23 04:28:00;;;;;;;19.00;10.40;;;;;;;8.75;67.81;98363.75;106973;1258;96651;-81
2024/03/23 04:30:28;;;;;;;17.20;10.20;;;;;;;8.75;67.79;98365.02;106792;1259;98413;-80
2024/03/23 04:32:55;;;;;;;19.50;11.20;;;;;;;8.74;67.83;98360.30;106813;1259;97910;-81
2024/03/23 04:35:24;;;;;;;17.90;9.50;;;;;;;8.74;67.85;98363.11;106814;1259;98022;-78
2024/03/23 04:37:52;;;;;;;18.50;10.50;;;;;;;8.75;67.86;98359.75;106932;1253;97968;-81
2024/03/23 04:40:18;;;;;;;16.50;9.80;;;;;;;8.74;67.71;98354.50;106772;1256;97875;-80
2024/03/23 04:42:45;;;;;;;20.10;10.40;;;;;;;8.74;67.74;98354.13;106833;1253;98034;-81
2024/03/23 04:45:11;;;;;;;18.20;10.30;;;;;;;8.73;67.93;98350.32;106771;1268;97978;-81
2024/03/23 04:47:38;;;;;;;18.60;10.10;;;;;;;8.73;67.90;98345.88;106978;1259;97922;-80
2024/03/23 04:50:05;;;;;;;16.70;8.80;;;;;;;8.73;67.90;98339.20;106845;1256;97988;-81
2024/03/23 04:52:32;;;;;;;16.20;8.90;;;;;;;8.74;67.77;98339.50;106867;1258;97867;-81
2024/03/23 04:54:58;;;;;;;17.00;9.70;;;;;;;8.75;67.86;98337.64;107837;1256;97952;-81
2024/03/23 04:57:25;;;;;;;16.00;9.20;;;;;;;8.76;67.84;98331.14;107463;1257;98028;-82
2024/03/23 04:59:51;;;;;;;16.30;9.30;;;;;;;8.78;67.70;98330.99;106888;1253;97865;-81
2024/03/23 05:02:18;;;;;;;18.00;9.50;;;;;;;8.79;67.79;98331.13;106761;1258;111270;-81
2024/03/23 05:04:44;;;;;;;18.20;10.30;;;;;;;8.80;67.70;98326.44;106895;1258;97955;-80
2024/03/23 05:07:11;;;;;;;16.70;9.80;;;;;;;8.81;67.90;98325.66;106793;1257;98014;-81
2024/03/23 05:09:37;;;;;;;14.90;8.90;;;;;;;8.82;67.79;98320.86;106880;1259;97960;-80
2024/03/23 05:12:04;;;;;;;18.80;10.90;;;;;;;8.81;67.78;98320.52;106942;1256;97879;-81
2024/03/23 05:14:31;;;;;;;17.60;9.90;;;;;;;8.82;67.68;98323.35;106879;1258;97949;-80
2024/03/23 05:16:57;;;;;;;17.70;10.00;;;;;;;8.83;67.78;98324.51;106755;1259;97895;-81
2024/03/23 05:19:24;;;;;;;18.10;9.80;;;;;;;8.82;67.71;98322.23;106896;1258;97961;-81
2024/03/23 05:21:50;;;;;;;17.80;10.00;;;;;;;8.83;67.73;98321.86;107021;1253;97978;-80
2024/03/23 05:24:16;;;;;;;16.80;9.90;;;;;;;8.82;67.83;98325.06;106818;1253;97948;-81
2024/03/23 05:26:43;;;;;;;22.40;10.60;;;;;;;8.83;67.83;98324.80;106829;1257;97960;-81
2024/03/23 05:29:13;;;;;;;17.50;10.20;;;;;;;8.86;67.72;98329.21;106761;1259;97880;-80
2024/03/23 05:31:41;;;;;;;17.10;9.80;;;;;;;8.86;67.92;98327.58;106931;1258;97853;-78
2024/03/23 05:34:09;;;;;;;16.70;9.60;;;;;;;8.87;67.74;98326.05;106801;1256;111190;-81
2024/03/23 05:36:36;;;;;;;17.10;9.80;;;;;;;8.91;67.78;98327.25;106941;1254;97899;-78
2024/03/23 05:39:03;;;;;;;17.30;9.40;;;;;;;8.92;67.77;98324.80;106734;1266;97957;-78
2024/03/23 05:41:30;;;;;;;17.80;10.60;;;;;;;8.93;67.71;98321.36;106757;1256;98015;-79
2024/03/23 05:43:56;;;;;;;17.70;10.80;;;;;;;8.97;67.92;98323.60;106724;1257;97950;-79
2024/03/23 05:46:22;;;;;;;18.80;9.10;;;;;;;8.99;67.70;98321.64;106640;1253;97882;-78
2024/03/23 05:48:50;;;;;;;19.30;10.70;;;;;;;9.01;67.72;98317.62;106638;1254;97967;-79
2024/03/23 05:51:17;;;;;;;16.50;8.10;;;;;;;9.02;67.82;98313.77;106785;1259;97921;-80
2024/03/23 05:53:45;;;;;;;16.10;9.70;;;;;;;9.05;67.64;98314.83;106922;1256;98037;-80
2024/03/23 05:56:12;;;;;;;14.00;8.40;;;;;;;9.04;67.83;98314.85;106759;1253;111351;-79
2024/03/23 05:58:38;;;;;;;17.60;10.50;;;;;;;9.06;67.69;98313.29;106808;1256;98010;-78
2024/03/23 06:01:05;;;;;;;15.60;9.70;;;;;;;9.08;67.74;98314.25;106772;1253;97878;-79
2024/03/23 06:03:31;;;;;;;18.70;10.80;;;;;;;9.09;67.69;98310.39;106809;1257;99279;-80
2024/03/23 06:05:58;;;;;;;18.70;10.40;;;;;;;9.11;67.63;98307.63;106981;1253;97860;-80
2024/03/23 06:08:24;;;;;;;17.90;10.60;;;;;;;9.14;67.68;98303.91;106695;1253;97798;-79
2024/03/23 06:10:51;;;;;;;16.90;9.60;;;;;;;9.15;67.64;98303.81;106813;1258;98032;-78
2024/03/23 06:13:18;;;;;;;17.90;9.50;;;;;;;9.17;67.73;98309.66;106789;1253;97974;-80
2024/03/23 06:15:46;;;;;;;16.80;10.30;;;;;;;9.18;67.61;98302.25;106847;1256;98455;-77
2024/03/23 06:18:12;;;;;;;19.80;10.40;;;;;;;9.21;67.67;98297.67;106706;1253;97889;-79
2024/03/23 06:20:39;;;;;;;17.60;10.20;;;;;;;9.21;67.69;98296.73;106737;1253;99318;-79
2024/03/23 06:23:06;;;;;;;15.90;9.40;;;;;;;9.23;67.74;98299.60;106796;1267;97962;-80
2024/03/23 06:25:32;;;;;;;18.20;10.90;;;;;;;9.24;67.74;98301.08;106853;1254;97871;-78
2024/03/23 06:28:01;;;;;;;16.70;10.30;;;;;;;9.28;67.71;98298.88;106791;1256;109928;-79
2024/03/23 06:30:29;;;;;;;19.50;10.60;;;;;;;9.32;67.70;98295.70;106784;1254;97918;-79
2024/03/23 06:32:55;;;;;;;20.40;10.80;;;;;;;9.36;67.77;98290.24;106828;1258;105514;-78
2024/03/23 06:35:22;;;;;;;22.10;11.20;;;;;;;9.39;67.70;98292.29;106668;1265;97966;-76
2024/03/23 06:37:48;;;;;;;17.10;10.50;;;;;;;9.43;67.71;98292.91;106472;1253;97978;-79
2024/03/23 06:40:15;;;;;;;18.70;11.10;;;;;;;9.46;67.69;98286.46;106906;1256;98792;-79
2024/03/23 06:42:41;;;;;;;16.80;10.70;;;;;;;9.49;67.70;98286.07;106627;1257;106306;-78
2024/03/23 06:45:08;;;;;;;18.80;10.30;;;;;;;9.52;67.63;98285.12;106844;1257;97969;-77
2024/03/23 06:47:35;;;;;;;22.30;11.20;;;;;;;9.54;67.62;98284.78;106660;1257;97955;-79
2024/03/23 06:50:03;;;;;;;17.90;9.60;;;;;;;9.54;67.60;98278.90;106803;1269;97904;-79
2024/03/23 06:52:30;;;;;;;18.50;9.40;;;;;;;9.56;67.65;98285.11;106640;1257;98474;-77
2024/03/23 06:54:57;;;;;;;20.00;11.80;;;;;;;9.58;67.61;98280.72;105972;1259;97973;-76
2024/03/23 06:57:24;;;;;;;19.00;10.10;;;;;;;9.60;67.57;98279.29;105871;1254;97979;-76
2024/03/23 06:59:50;;;;;;;20.40;11.30;;;;;;;9.63;67.53;98277.69;105752;1259;97962;-75
2024/03/23 07:02:17;;;;;;;20.10;10.40;;;;;;;9.66;67.55;98272.66;105695;1253;97905;-76
2024/03/23 07:04:44;;;;;;;17.90;10.10;;;;;;;9.71;67.61;98270.48;105492;1256;98193;-78
2024/03/23 07:07:10;;;;;;;18.90;10.30;;;;;;;9.76;67.65;98269.37;105188;1253;98350;-76
2024/03/23 07:09:37;;;;;;;16.90;10.40;;;;;;;9.79;67.63;98265.70;105400;1255;97973;-75
2024/03/23 07:12:04;;;;;;;16.80;9.10;;;;;;;9.83;67.57;98256.34;105398;1253;97978;-75
2024/03/23 07:14:31;;;;;;;18.00;10.90;;;;;;;9.88;67.57;98254.17;105450;1256;98062;-76
2024/03/23 07:16:58;;;;;;;23.10;12.10;;;;;;;9.93;67.52;98254.02;105394;1258;97980;-76
2024/03/23 07:19:24;;;;;;;19.30;10.70;;;;;;;9.95;67.46;98255.91;105173;1259;98733;-77
2024/03/23 07:21:51;;;;;;;20.50;11.00;;;;;;;9.96;67.39;98249.83;105460;1257;98052;-77
2024/03/23 07:24:17;;;;;;;18.40;11.20;;;;;;;9.97;67.49;98241.61;105394;1259;97945;-77
2024/03/23 07:26:44;;;;;;;19.10;11.00;;;;;;;9.98;67.51;98247.75;105415;1268;97978;-76
2024/03/23 07:29:10;;;;;;;20.60;12.30;;;;;;;10.00;67.51;98255.52;105394;1263;99441;-76
2024/03/23 07:31:38;;;;;;;18.60;10.70;;;;;;;10.03;67.45;98256.38;105372;1257;98046;-76
2024/03/23 07:34:05;;;;;;;20.80;11.80;;;;;;;10.06;67.34;98256.13;105466;1253;98103;-77
2024/03/23 07:36:32;;;;;;;20.70;11.50;;;;;;;10.09;67.36;98252.29;105355;1257;98063;-77
2024/03/23 07:38:58;;;;;;;21.50;12.30;;;;;;;10.12;67.33;98240.69;105279;1268;98057;-76
2024/03/23 07:41:44;;;;;;;21.10;12.40;;;;;;;10.17;67.35;98233.36;105297;1257;98436;-76
2024/03/23 07:44:11;;;;;;;21.40;11.20;;;;;;;10.19;67.42;98234.59;105434;1258;111124;-77
2024/03/23 07:46:38;;;;;;;19.70;10.50;;;;;;;10.21;67.38;98228.57;105343;1259;97977;-77
2024/03/23 07:49:04;;;;;;;21.30;12.20;;;;;;;10.25;67.36;98224.03;105097;1260;98025;-77
2024/03/23 07:51:34;;;;;;;21.90;11.80;;;;;;;10.28;67.26;98229.39;105118;1259;98034;-76
2024/03/23 07:54:01;;;;;;;19.70;11.70;;;;;;;10.31;67.24;98226.23;105515;1257;98065;-78
2024/03/23 07:56:27;;;;;;;16.90;9.30;;;;;;;10.34;67.28;98222.79;105683;1256;97957;-77
2024/03/23 07:58:54;;;;;;;16.80;8.80;;;;;;;10.38;67.20;98233.05;105241;1266;97956;-78
2024/03/23 08:01:21;;;;;;;18.30;11.30;;;;;;;10.42;67.18;98239.25;105466;1259;97958;-78
2024/03/23 08:03:49;;;;;;;20.30;11.70;;;;;;;10.47;67.26;98220.98;105446;1256;97971;-77
2024/03/23 08:06:19;;;;;;;20.20;11.10;;;;;;;10.54;67.26;98220.93;105337;1259;111277;-78
2024/03/23 08:08:48;;;;;;;18.30;10.60;;;;;;;10.63;67.23;98237.01;105435;1253;97796;-77
2024/03/23 08:11:15;;;;;;;20.40;13.40;;;;;;;10.73;67.28;98232.55;105371;1254;106698;-78
2024/03/23 08:13:44;;;;;;;19.80;11.00;;;;;;;10.82;67.17;98217.92;105373;1263;99273;-77
2024/03/23 08:16:13;;;;;;;19.50;11.30;;;;;;;10.89;67.04;98215.77;105400;1257;98147;-78
2024/03/23 08:18:40;;;;;;;19.40;10.20;;;;;;;10.91;67.08;98198.16;105383;1257;109439;-77
2024/03/23 08:21:07;;;;;;;18.10;10.90;;;;;;;10.92;67.00;98174.91;105327;1268;97955;-77
2024/03/23 08:23:38;;;;;;;17.90;10.20;;;;;;;10.91;66.90;98162.73;105557;1264;98054;-77
2024/03/23 08:26:10;;;;;;;17.40;10.60;;;;;;;10.89;66.83;98154.77;105274;1258;97891;-77
2024/03/23 08:28:37;;;;;;;17.50;11.80;;;;;;;10.87;66.80;98152.05;105422;1258;98234;-77
2024/03/23 08:31:08;;;;;;;18.00;10.90;;;;;;;10.88;66.80;98149.16;105319;1257;111192;-77
2024/03/23 08:33:35;;;;;;;16.70;10.60;;;;;;;10.91;66.92;98152.30;105491;1265;98039;-77
2024/03/23 08:36:07;;;;;;;23.00;12.40;;;;;;;10.96;66.94;98151.67;105562;1265;98296;-77
2024/03/23 08:38:34;;;;;;;15.40;9.60;;;;;;;11.02;66.97;98149.13;105359;1259;97986;-78
2024/03/23 08:41:05;;;;;;;18.90;11.10;;;;;;;11.11;66.97;98158.89;105353;1257;98442;-77
2024/03/23 08:43:35;;;;;;;17.40;10.90;;;;;;;11.20;67.05;98149.18;105232;1267;111106;-77
2024/03/23 08:46:15;;;;;;;20.70;11.60;;;;;;;11.29;66.91;98146.95;105403;1269;98016;-76
2024/03/23 08:48:45;;;;;;;15.10;9.70;;;;;;;11.37;66.93;98146.94;105465;1259;107054;-77
2024/03/23 08:51:13;;;;;;;16.90;10.20;;;;;;;11.43;66.79;98147.29;105358;1259;97999;-75
2024/03/23 08:53:41;;;;;;;17.60;10.80;;;;;;;11.50;66.86;98143.80;105503;1257;98406;-80
2024/03/23 08:56:09;;;;;;;20.00;11.50;;;;;;;11.57;66.86;98148.14;105504;1256;98023;-73
2024/03/23 08:58:37;;;;;;;22.00;11.70;;;;;;;11.64;66.97;98148.91;105513;1260;97958;-75
2024/03/23 09:01:08;;;;;;;19.10;11.90;;;;;;;11.71;66.86;98145.12;105601;1257;107206;-76
2024/03/23 09:03:37;;;;;;;19.80;11.70;;;;;;;11.78;66.73;98146.05;105485;1257;99266;-74
2024/03/23 09:06:08;;;;;;;18.90;11.80;;;;;;;11.85;66.71;98145.77;105139;1257;99197;-74
2024/03/23 09:08:36;;;;;;;23.30;11.80;;;;;;;11.91;66.72;98144.02;105414;1268;111225;-75
2024/03/23 09:11:05;;;;;;;16.40;10.20;;;;;;;11.98;66.94;98157.08;105486;1258;99281;-73
2024/03/23 09:13:33;;;;;;;18.20;10.80;;;;;;;12.04;66.90;98150.40;105289;1254;107324;-74
2024/03/23 09:16:00;;;;;;;14.50;9.70;;;;;;;12.11;66.76;98143.60;105350;1266;97926;-74
2024/03/23 09:18:27;;;;;;;16.60;10.70;;;;;;;12.16;66.90;98139.55;105168;1259;98052;-75
2024/03/23 09:20:54;;;;;;;16.90;10.30;;;;;;;12.23;66.74;98141.94;105152;1267;97974;-74
2024/03/23 09:23:21;;;;;;;18.00;10.80;;;;;;;12.29;66.88;98140.70;105093;1258;98062;-75
2024/03/23 09:25:48;;;;;;;18.20;11.50;;;;;;;12.35;66.69;98141.70;105339;1266;98525;-73
2024/03/23 09:28:14;;;;;;;18.00;10.70;;;;;;;12.39;66.63;98135.80;105146;1266;98193;-74
2024/03/23 09:30:43;;;;;;;16.40;10.20;;;;;;;12.43;66.61;98129.24;105424;1254;111329;-75
2024/03/23 09:33:11;;;;;;;19.00;11.70;;;;;;;12.42;66.55;98125.41;105094;1270;98095;-75
2024/03/23 09:35:38;;;;;;;15.30;9.20;;;;;;;12.40;66.47;98118.70;105272;1257;107698;-73
2024/03/23 09:38:07;;;;;;;17.70;11.10;;;;;;;12.39;66.28;98113.03;105289;1266;97970;-75
2024/03/23 09:40:33;;;;;;;17.40;10.30;;;;;;;12.38;66.14;98110.85;105370;1265;98160;-75
2024/03/23 09:43:00;;;;;;;17.20;10.40;;;;;;;12.38;66.05;98106.23;105559;1257;98165;-74
2024/03/23 09:45:28;;;;;;;17.10;10.90;;;;;;;12.37;66.07;98100.27;105267;1259;97956;-74
2024/03/23 09:47:56;;;;;;;16.80;10.30;;;;;;;12.36;65.89;98098.22;105417;1259;98049;-74
2024/03/23 09:50:22;;;;;;;17.70;11.00;;;;;;;12.35;66.01;98090.08;105526;1257;98042;-74
2024/03/23 09:52:49;;;;;;;18.30;10.20;;;;;;;12.34;65.98;98085.40;105216;1266;97949;-73
2024/03/23 09:55:16;;;;;;;15.10;9.80;;;;;;;12.35;66.01;98084.48;105358;1257;97974;-75
2024/03/23 09:57:42;;;;;;;13.30;8.00;;;;;;;12.35;65.98;98079.09;105597;1259;98422;-73
2024/03/23 10:00:09;;;;;;;21.60;11.90;;;;;;;12.34;65.74;98069.06;105476;1264;97968;-72
2024/03/23 10:02:37;;;;;;;21.10;11.70;;;;;;;12.32;65.69;98063.27;105320;1259;97894;-73
2024/03/23 10:05:03;;;;;;;17.20;10.30;;;;;;;12.28;65.48;98056.31;105532;1256;97981;-73
2024/03/23 10:07:30;;;;;;;19.40;11.80;;;;;;;12.26;65.50;98057.63;105425;1257;97968;-72
2024/03/23 10:09:56;;;;;;;19.50;12.10;;;;;;;12.25;65.32;98054.98;105452;1261;97974;-71
2024/03/23 10:12:24;;;;;;;18.60;11.70;;;;;;;12.26;65.27;98053.33;105555;1254;98064;-74
2024/03/23 10:14:51;;;;;;;16.10;10.40;;;;;;;12.30;65.45;98047.98;105345;1257;111245;-72
2024/03/23 10:17:22;;;;;;;19.00;10.40;;;;;;;12.36;65.45;98042.05;105145;1257;97981;-73
2024/03/23 10:19:51;;;;;;;18.40;11.20;;;;;;;12.41;65.25;98032.89;105382;1266;107039;-73
2024/03/23 10:22:18;;;;;;;17.80;10.70;;;;;;;12.43;65.10;98021.86;105358;1257;97972;-75
2024/03/23 10:24:46;;;;;;;17.20;10.70;;;;;;;12.46;65.19;98014.23;105133;1254;98105;-74
2024/03/23 10:27:18;;;;;;;14.50;10.20;;;;;;;12.55;65.17;98022.46;105032;1260;111286;-74
2024/03/23 10:29:46;;;;;;;16.60;9.90;;;;;;;12.63;65.00;98016.12;105309;1256;98086;-74
2024/03/23 10:32:17;;;;;;;14.90;10.10;;;;;;;12.71;65.09;98014.19;105372;1257;107595;-73
2024/03/23 10:34:45;;;;;;;21.60;11.30;;;;;;;12.76;65.09;98015.41;105436;1257;98212;-73
2024/03/23 10:37:13;;;;;;;17.80;10.50;;;;;;;12.82;64.90;98010.08;105410;1267;98180;-77
2024/03/23 10:39:41;;;;;;;17.30;10.40;;;;;;;12.86;64.86;98001.65;105440;1255;111165;-76
2024/03/23 10:42:23;;;;;;;17.90;10.50;;;;;;;12.92;64.68;97999.41;102344;1292;636087;-76
2024/03/23 10:44:53;;;;;;;15.80;10.30;;;;;;;12.92;64.72;98004.11;104191;1272;95930;-76
2024/03/23 10:47:21;;;;;;;18.80;10.20;;;;;;;12.93;64.48;98000.90;104476;1271;95263;-76
2024/03/23 10:49:49;;;;;;;14.40;9.40;;;;;;;12.96;64.38;97996.41;104179;1272;106479;-76
2024/03/23 10:52:16;;;;;;;16.00;9.80;;;;;;;13.00;64.42;97998.65;104291;1271;95352;-76
2024/03/23 10:54:50;;;;;;;16.60;10.60;;;;;;;13.09;64.53;97994.91;105466;1263;107291;-81
2024/03/23 10:57:26;;;;;;;16.80;10.20;;;;;;;13.19;64.56;97993.38;106615;1259;95189;-80
2024/03/23 10:59:55;;;;;;;17.40;10.80;;;;;;;13.32;64.22;97984.45;106668;1257;95320;-79
2024/03/23 11:03:36;;;;;;;14.20;9.10;;;;;;;13.43;64.30;97969.27;102986;1289;636127;-76
2024/03/23 11:06:06;;;;;;;16.10;9.80;;;;;;;13.46;64.20;97962.87;105349;1272;95296;-76
2024/03/23 11:08:38;;;;;;;16.30;9.80;;;;;;;13.52;64.24;97958.77;105501;1257;95353;-76
2024/03/23 11:11:19;;;;;;;18.20;10.20;;;;;;;13.54;64.06;97959.39;105535;1251;108410;-76
2024/03/23 11:13:49;;;;;;;17.20;10.80;;;;;;;13.52;63.83;97949.86;105384;1257;95234;-77
2024/03/23 11:16:27;;;;;;;15.50;9.10;;;;;;;13.46;63.60;97946.58;105338;1258;176269;-77
2024/03/23 11:19:15;;;;;;;;;;;;;;;13.41;63.50;97942.95;105508;1250;95797;-78
2024/03/23 11:21:55;;;;;;;15.30;9.40;;;;;;;13.36;63.49;97936.52;105777;1253;95269;-78